Time,TemperatureF,DewpointF,PressureIn,WindDirection,WindDirectionDegrees,WindSpeedMPH,WindSpeedGustMPH,Humidity,HourlyPrecipIn,Conditions,Clouds,dailyrainin,SoftwareType,DateUTC
2013-03-21 00:00:00,48.0,31.0,-100.00,North,10,6.0,-999.0,51,0.00,,,0.00,,2013-03-21 05:00:00,
2013-03-21 00:32:00,48.0,31.0,-100.00,North,10,6.0,-999.0,51,0.00,,,0.00,,2013-03-21 05:32:00,
2013-03-21 00:44:00,48.0,31.0,-100.00,North,10,6.0,-999.0,51,0.00,,,0.00,,2013-03-21 05:44:00,
2013-03-21 00:52:00,48.0,31.0,-100.00,North,10,6.0,-999.0,51,0.00,,,0.00,,2013-03-21 05:52:00,
2013-03-21 01:00:00,47.0,29.0,-100.00,NNE,22,2.0,-999.0,48,0.00,,,0.00,,2013-03-21 06:00:00,
2013-03-21 01:32:00,47.0,29.0,-100.00,NNE,22,2.0,-999.0,48,0.00,,,0.00,,2013-03-21 06:32:00,
2013-03-21 01:42:00,47.0,29.0,-100.00,NNE,22,2.0,-999.0,48,0.00,,,0.00,,2013-03-21 06:42:00,
2013-03-21 01:52:00,47.0,29.0,-100.00,NNE,22,2.0,-999.0,48,0.00,,,0.00,,2013-03-21 06:52:00,
2013-03-21 02:00:00,44.0,30.0,-100.00,SSE,168,3.0,-999.0,57,0.00,,,0.00,,2013-03-21 07:00:00,
2013-03-21 02:32:00,44.0,30.0,-100.00,SSE,168,3.0,-999.0,57,0.00,,,0.00,,2013-03-21 07:32:00,
2013-03-21 02:43:00,44.0,30.0,-100.00,SSE,168,3.0,-999.0,57,0.00,,,0.00,,2013-03-21 07:43:00,
2013-03-21 02:52:00,44.0,30.0,-100.00,SSE,168,3.0,-999.0,57,0.00,,,0.00,,2013-03-21 07:52:00,
2013-03-21 03:00:00,43.0,30.0,-100.00,SE,128,3.0,-999.0,60,0.00,,,0.00,,2013-03-21 08:00:00,
2013-03-21 03:33:00,43.0,30.0,-100.00,SE,128,3.0,-999.0,60,0.00,,,0.00,,2013-03-21 08:33:00,
2013-03-21 03:43:00,43.0,30.0,-100.00,SE,128,3.0,-999.0,60,0.00,,,0.00,,2013-03-21 08:43:00,
2013-03-21 03:52:00,43.0,30.0,-100.00,SE,128,3.0,-999.0,60,0.00,,,0.00,,2013-03-21 08:52:00,
2013-03-21 04:00:00,41.0,31.0,-100.00,SSE,157,3.0,-999.0,68,0.00,,,0.00,,2013-03-21 09:00:00,
2013-03-21 04:33:00,41.0,31.0,-100.00,SSE,157,3.0,-999.0,68,0.00,,,0.00,,2013-03-21 09:33:00,
2013-03-21 04:43:00,41.0,31.0,-100.00,SSE,157,3.0,-999.0,68,0.00,,,0.00,,2013-03-21 09:43:00,
2013-03-21 04:53:00,41.0,31.0,-100.00,SSE,157,3.0,-999.0,68,0.00,,,0.00,,2013-03-21 09:53:00,
2013-03-21 05:00:00,40.0,31.0,-100.00,SE,137,4.0,-999.0,68,0.00,,,0.00,,2013-03-21 10:00:00,
2013-03-21 05:33:00,40.0,31.0,-100.00,SE,137,4.0,-999.0,68,0.00,,,0.00,,2013-03-21 10:33:00,
2013-03-21 05:43:00,40.0,31.0,-100.00,SE,137,4.0,-999.0,68,0.00,,,0.00,,2013-03-21 10:43:00,
2013-03-21 05:53:00,40.0,31.0,-100.00,SE,137,4.0,-999.0,68,0.00,,,0.00,,2013-03-21 10:53:00,
2013-03-21 06:00:00,43.0,29.0,-100.00,SSE,147,9.0,-999.0,57,0.00,,,0.00,,2013-03-21 11:00:00,
2013-03-21 06:33:00,43.0,29.0,-100.00,SSE,147,9.0,-999.0,57,0.00,,,0.00,,2013-03-21 11:33:00,
2013-03-21 06:43:00,43.0,29.0,-100.00,SSE,147,9.0,-999.0,57,0.00,,,0.00,,2013-03-21 11:43:00,
2013-03-21 06:53:00,43.0,29.0,-100.00,SSE,147,9.0,-999.0,57,0.00,,,0.00,,2013-03-21 11:53:00,
2013-03-21 07:00:00,43.0,27.0,-100.00,SE,136,9.0,-999.0,53,0.00,,,0.00,,2013-03-21 12:00:00,
2013-03-21 07:33:00,43.0,27.0,-100.00,SE,136,9.0,-999.0,53,0.00,,,0.00,,2013-03-21 12:33:00,
2013-03-21 07:43:00,43.0,27.0,-100.00,SE,136,9.0,-999.0,53,0.00,,,0.00,,2013-03-21 12:43:00,
2013-03-21 07:53:00,43.0,27.0,-100.00,SE,136,9.0,-999.0,53,0.00,,,0.00,,2013-03-21 12:53:00,
2013-03-21 08:00:00,43.0,27.0,-100.00,SE,141,8.0,-999.0,54,0.00,,,0.00,,2013-03-21 13:00:00,
2013-03-21 08:32:00,43.0,27.0,-100.00,SE,141,8.0,-999.0,54,0.00,,,0.00,,2013-03-21 13:32:00,
2013-03-21 08:43:00,43.0,27.0,-100.00,SE,141,8.0,-999.0,54,0.00,,,0.00,,2013-03-21 13:43:00,
2013-03-21 08:52:00,43.0,27.0,-100.00,SE,141,8.0,-999.0,54,0.00,,,0.00,,2013-03-21 13:52:00,
2013-03-21 09:00:00,43.0,23.0,-100.00,SE,130,11.0,-999.0,45,0.00,,,0.00,,2013-03-21 14:00:00,
2013-03-21 09:32:00,43.0,23.0,-100.00,SE,130,11.0,-999.0,45,0.00,,,0.00,,2013-03-21 14:32:00,
2013-03-21 09:43:00,43.0,23.0,-100.00,SE,130,11.0,-999.0,45,0.00,,,0.00,,2013-03-21 14:43:00,
2013-03-21 09:52:00,43.0,23.0,-100.00,SE,130,11.0,-999.0,45,0.00,,,0.00,,2013-03-21 14:52:00,
2013-03-21 10:00:00,44.0,21.0,-100.00,SE,136,14.0,-999.0,40,0.00,,,0.00,,2013-03-21 15:00:00,
2013-03-21 10:33:00,44.0,21.0,-100.00,SE,136,14.0,-999.0,40,0.00,,,0.00,,2013-03-21 15:33:00,
2013-03-21 10:43:00,44.0,21.0,-100.00,SE,136,14.0,-999.0,40,0.00,,,0.00,,2013-03-21 15:43:00,
2013-03-21 10:53:00,44.0,21.0,-100.00,SE,136,14.0,-999.0,40,0.00,,,0.00,,2013-03-21 15:53:00,
2013-03-21 11:00:00,44.0,20.0,-100.00,SE,132,11.0,-999.0,38,0.00,,,0.00,,2013-03-21 16:00:00,
2013-03-21 11:33:00,44.0,20.0,-100.00,SE,132,11.0,-999.0,38,0.00,,,0.00,,2013-03-21 16:33:00,
2013-03-21 11:42:00,44.0,20.0,-100.00,SE,132,11.0,-999.0,38,0.00,,,0.00,,2013-03-21 16:42:00,
2013-03-21 11:53:00,44.0,20.0,-100.00,SE,132,11.0,-999.0,38,0.00,,,0.00,,2013-03-21 16:53:00,
2013-03-21 12:00:00,42.0,25.0,-100.00,ESE,115,10.0,-999.0,51,0.00,,,0.00,,2013-03-21 17:00:00,
2013-03-21 12:33:00,42.0,25.0,-100.00,ESE,115,10.0,-999.0,51,0.00,,,0.00,,2013-03-21 17:33:00,
2013-03-21 12:43:00,42.0,25.0,-100.00,ESE,115,10.0,-999.0,51,0.00,,,0.00,,2013-03-21 17:43:00,
2013-03-21 12:53:00,42.0,25.0,-100.00,ESE,115,10.0,-999.0,51,0.00,,,0.00,,2013-03-21 17:53:00,
2013-03-21 13:00:00,43.0,29.0,-100.00,SE,145,10.0,-999.0,59,0.00,,,0.00,,2013-03-21 18:00:00,
2013-03-21 13:32:00,43.0,29.0,-100.00,SE,145,10.0,-999.0,59,0.00,,,0.00,,2013-03-21 18:32:00,
2013-03-21 13:43:00,43.0,29.0,-100.00,SE,145,10.0,-999.0,59,0.00,,,0.00,,2013-03-21 18:43:00,
2013-03-21 13:52:00,43.0,29.0,-100.00,SE,145,10.0,-999.0,59,0.00,,,0.00,,2013-03-21 18:52:00,
2013-03-21 14:00:00,40.0,34.0,-100.00,East,96,8.0,-999.0,80,0.02,,,0.02,,2013-03-21 19:00:00,
2013-03-21 14:32:00,40.0,34.0,-100.00,East,96,8.0,-999.0,80,0.02,,,0.02,,2013-03-21 19:32:00,
2013-03-21 14:43:00,40.0,34.0,-100.00,East,96,8.0,-999.0,80,0.02,,,0.02,,2013-03-21 19:43:00,
2013-03-21 14:53:00,40.0,34.0,-100.00,East,96,8.0,-999.0,80,0.02,,,0.02,,2013-03-21 19:53:00,
2013-03-21 15:00:00,41.0,36.0,-100.00,ESE,115,10.0,-999.0,82,0.03,,,0.05,,2013-03-21 20:00:00,
2013-03-21 15:33:00,41.0,36.0,-100.00,ESE,115,10.0,-999.0,82,0.03,,,0.05,,2013-03-21 20:33:00,
2013-03-21 15:42:00,41.0,36.0,-100.00,ESE,115,10.0,-999.0,82,0.03,,,0.05,,2013-03-21 20:42:00,
2013-03-21 15:53:00,41.0,36.0,-100.00,ESE,115,10.0,-999.0,82,0.03,,,0.05,,2013-03-21 20:53:00,
2013-03-21 16:00:00,40.0,36.0,-100.00,SE,129,10.0,-999.0,84,0.03,,,0.08,,2013-03-21 21:00:00,
2013-03-21 16:33:00,40.0,36.0,-100.00,SE,129,10.0,-999.0,84,0.03,,,0.08,,2013-03-21 21:33:00,
2013-03-21 16:43:00,40.0,36.0,-100.00,SE,129,10.0,-999.0,84,0.03,,,0.08,,2013-03-21 21:43:00,
2013-03-21 16:53:00,40.0,36.0,-100.00,SE,129,10.0,-999.0,84,0.03,,,0.08,,2013-03-21 21:53:00,
2013-03-21 17:00:00,42.0,36.0,-100.00,SE,124,10.0,-999.0,81,0.00,,,0.08,,2013-03-21 22:00:00,
2013-03-21 17:33:00,42.0,36.0,-100.00,SE,124,10.0,-999.0,81,0.00,,,0.08,,2013-03-21 22:33:00,
2013-03-21 17:43:00,42.0,36.0,-100.00,SE,124,10.0,-999.0,81,0.00,,,0.08,,2013-03-21 22:43:00,
2013-03-21 17:53:00,42.0,36.0,-100.00,SE,124,10.0,-999.0,81,0.00,,,0.08,,2013-03-21 22:53:00,
2013-03-21 18:00:00,43.0,36.0,-100.00,ESE,121,11.0,-999.0,78,0.00,,,0.08,,2013-03-21 23:00:00,
2013-03-21 18:32:00,43.0,36.0,-100.00,ESE,121,11.0,-999.0,78,0.00,,,0.08,,2013-03-21 23:32:00,
2013-03-21 18:43:00,43.0,36.0,-100.00,ESE,121,11.0,-999.0,78,0.00,,,0.08,,2013-03-21 23:43:00,
2013-03-21 18:53:00,43.0,36.0,-100.00,ESE,121,11.0,-999.0,78,0.00,,,0.08,,2013-03-21 23:53:00,
2013-03-21 19:00:00,41.0,37.0,-100.00,ESE,109,10.0,-999.0,83,0.00,,,0.08,,2013-03-22 00:00:00,
2013-03-21 19:32:00,41.0,37.0,-100.00,ESE,109,10.0,-999.0,83,0.00,,,0.08,,2013-03-22 00:32:00,
2013-03-21 19:42:00,41.0,37.0,-100.00,ESE,109,10.0,-999.0,83,0.00,,,0.08,,2013-03-22 00:42:00,
2013-03-21 19:52:00,41.0,37.0,-100.00,ESE,109,10.0,-999.0,83,0.00,,,0.08,,2013-03-22 00:52:00,
2013-03-21 20:00:00,41.0,36.0,-100.00,ESE,102,10.0,-999.0,82,0.00,,,0.08,,2013-03-22 01:00:00,
2013-03-21 20:32:00,41.0,36.0,-100.00,ESE,102,10.0,-999.0,82,0.00,,,0.08,,2013-03-22 01:32:00,
2013-03-21 20:43:00,41.0,36.0,-100.00,ESE,102,10.0,-999.0,82,0.00,,,0.08,,2013-03-22 01:43:00,
2013-03-21 20:53:00,41.0,36.0,-100.00,ESE,102,10.0,-999.0,82,0.00,,,0.08,,2013-03-22 01:53:00,
2013-03-21 21:00:00,41.0,35.0,-100.00,ESE,110,10.0,-999.0,79,0.00,,,0.08,,2013-03-22 02:00:00,
2013-03-21 21:32:00,41.0,35.0,-100.00,ESE,110,10.0,-999.0,79,0.00,,,0.08,,2013-03-22 02:32:00,
2013-03-21 21:43:00,41.0,35.0,-100.00,ESE,110,10.0,-999.0,79,0.00,,,0.08,,2013-03-22 02:43:00,
2013-03-21 21:53:00,41.0,35.0,-100.00,ESE,110,10.0,-999.0,79,0.00,,,0.08,,2013-03-22 02:53:00,
2013-03-21 22:00:00,41.0,35.0,-100.00,ESE,110,9.0,-999.0,79,0.00,,,0.08,,2013-03-22 03:00:00,
2013-03-21 22:33:00,41.0,35.0,-100.00,ESE,110,9.0,-999.0,79,0.00,,,0.08,,2013-03-22 03:33:00,
2013-03-21 22:43:00,41.0,35.0,-100.00,ESE,110,9.0,-999.0,79,0.00,,,0.08,,2013-03-22 03:43:00,
2013-03-21 22:53:00,41.0,35.0,-100.00,ESE,110,9.0,-999.0,79,0.00,,,0.08,,2013-03-22 03:53:00,
2013-03-21 23:00:00,40.0,36.0,-100.00,ESE,115,7.0,-999.0,86,0.03,,,0.11,,2013-03-22 04:00:00,
2013-03-21 23:43:00,40.0,36.0,-100.00,ESE,115,7.0,-999.0,86,0.03,,,0.11,,2013-03-22 04:43:00,
2013-03-21 23:52:00,40.0,36.0,-100.00,ESE,115,7.0,-999.0,86,0.03,,,0.11,,2013-03-22 04:52:00,